Impacts METAR Board
IDs:

KILE - Killeen/Skylark Fld, TX, US

Updated at: 0100 UTC 24 Oct 2019
Potential Impact None Slight Moderate High
Time 23/13Z 23/14Z 23/15Z 23/16Z 23/17Z 23/18Z 23/19Z 23/20Z 23/21Z 23/22Z 23/23Z 24/00Z 24/01Z
Temp 72 76 82 84 83 81 79 76
Dewpt 53 56 53 53 55 55 56 56
Altim 30.10 30.07 29.96 29.95 29.93 29.93 29.93 29.95
VIS 10 10 10 10 10 10 10 10
CIG -- -- -- -- -- -- -- --
CoverCLRCLRCLRCLRCLRCLRCLRFEW
FltCatVFRVFRVFRVFRVFRVFRVFRVFR
WX----------------
WDir160170190180160170160150
WSpd 13 16 16 17 16 14 11 13
WGst -- 22 25 23 22 19 -- 20
Raw hourly METARs



KILE 231556Z AUTO 16013KT 10SM CLR 22/12 A3010 RMK AO2 SLP183 T02220117 TSNO
KILE 231656Z AUTO 17016G22KT 10SM CLR 24/13 A3007 RMK AO2 SLP173 T02440133


KILE 231956Z AUTO 19016G25KT 10SM CLR 28/12 A2996 RMK AO2 PK WND 19026/1943 SLPNO T02780117
KILE 232056Z AUTO 18017G23KT 10SM CLR 29/12 A2995 RMK AO2 PK WND 15026/2015 SLPNO 6//// T02890117
KILE 232156Z AUTO 16016G22KT 10SM CLR 28/13 A2993 RMK AO2 SLPNO T02830128
KILE 232256Z AUTO 17014G19KT 10SM CLR 27/13 A2993 RMK AO2 SLPNO T02720128
KILE 232356Z AUTO 16011KT 10SM CLR 26/13 A2993 RMK AO2 SLPNO 6//// T02610133 55004
KILE 240056Z AUTO 15013G20KT 10SM FEW070 24/13 A2995 RMK AO2 SLPNO T02440133